createdAt,value
2023-02-24T00:01:28.282Z,95170.47
2023-02-24T00:06:41.146Z,95161.91
2023-02-24T00:11:44.102Z,95149.63
2023-02-24T00:16:46.781Z,95144.25
2023-02-24T00:21:49.254Z,95147.44
2023-02-24T00:26:54.270Z,95142.84
2023-02-24T00:31:59.992Z,95135.34
2023-02-24T00:37:03.368Z,95132.38
2023-02-24T00:42:05.924Z,95133.38
2023-02-24T00:47:17.354Z,95142.94
2023-02-24T00:52:20.568Z,95142.63
2023-02-24T00:57:23.036Z,95135.06
2023-02-24T01:02:26.780Z,95137.41
2023-02-24T01:07:29.528Z,95128.88
2023-02-24T01:12:49.672Z,95120.81
2023-02-24T01:17:52.961Z,95108.81
2023-02-24T01:22:56.795Z,95109.69
2023-02-24T01:28:00.046Z,95109.16
2023-02-24T01:33:04.036Z,95105.19
2023-02-24T01:38:08.435Z,95101.66
2023-02-24T01:43:13.713Z,95103.69
2023-02-24T01:48:17.759Z,95096.94
2023-02-24T01:53:20.626Z,95087.84
2023-02-24T01:58:23.850Z,95081.09
2023-02-24T02:03:26.721Z,95069.28
2023-02-24T02:08:29.154Z,95066.63
2023-02-24T02:13:31.622Z,95068.13
2023-02-24T02:18:35.564Z,95075.00
2023-02-24T02:23:38.602Z,95065.34
2023-02-24T02:28:45.563Z,95059.72
2023-02-24T02:33:48.447Z,95057.81
2023-02-24T02:38:50.748Z,95064.19
2023-02-24T02:43:53.533Z,95059.59
2023-02-24T02:48:56.667Z,95059.25
2023-02-24T02:53:59.400Z,95052.31
2023-02-24T02:59:01.696Z,95042.47
2023-02-24T03:04:05.619Z,95063.78
2023-02-24T03:09:12.281Z,95056.56
2023-02-24T03:14:15.018Z,95055.44
2023-02-24T03:19:21.422Z,95051.72
2023-02-24T03:24:24.438Z,95043.22
2023-02-24T03:29:27.571Z,95041.81
2023-02-24T03:34:30.008Z,95047.09
2023-02-24T03:39:33.173Z,95046.22
2023-02-24T03:44:35.650Z,95046.81
2023-02-24T03:49:38.567Z,95045.59
2023-02-24T03:54:42.803Z,95039.59
2023-02-24T03:59:52.853Z,95034.84
2023-02-24T04:04:55.217Z,95023.09
2023-02-24T04:09:59.198Z,95012.13
2023-02-24T04:15:04.732Z,95017.69
2023-02-24T04:20:12.900Z,95005.16
2023-02-24T04:25:16.069Z,94997.19
2023-02-24T04:30:19.814Z,94994.88
2023-02-24T04:35:24.436Z,94992.81
2023-02-24T04:40:26.904Z,94983.28
2023-02-24T04:45:30.124Z,94982.03
2023-02-24T04:50:33.331Z,94965.81
2023-02-24T04:55:39.817Z,94963.44
2023-02-24T05:00:42.303Z,94947.19
2023-02-24T05:05:45.053Z,94951.94
2023-02-24T05:10:47.448Z,94947.41
2023-02-24T05:15:50.637Z,94929.75
2023-02-24T05:21:11.450Z,94932.59
2023-02-24T05:26:16.286Z,94927.19
2023-02-24T05:31:19.607Z,94922.09
2023-02-24T05:36:23.136Z,94923.84
2023-02-24T05:41:25.638Z,94920.44
2023-02-24T05:46:29.201Z,94916.19
2023-02-24T05:51:52.400Z,94905.91
2023-02-24T05:56:56.927Z,94911.84
2023-02-24T06:02:00.376Z,94903.28
2023-02-24T06:07:14.516Z,94911.31
2023-02-24T06:12:22.117Z,94905.38
2023-02-24T06:17:25.898Z,94915.44
2023-02-24T06:22:28.727Z,94910.56
2023-02-24T06:27:31.008Z,94914.81
2023-02-24T06:32:35.792Z,94913.84
2023-02-24T06:37:39.429Z,94914.69
2023-02-24T06:42:41.872Z,94921.66
2023-02-24T06:47:46.634Z,94918.28
2023-02-24T06:52:49.102Z,94925.81
2023-02-24T06:57:52.942Z,94932.38
2023-02-24T07:02:56.712Z,94929.97
2023-02-24T07:08:00.004Z,94923.69
2023-02-24T07:13:03.235Z,94918.91
2023-02-24T07:18:07.169Z,94913.69
2023-02-24T07:23:10.675Z,94907.28
2023-02-24T07:28:13.348Z,94902.63
2023-02-24T07:33:15.796Z,94885.69
2023-02-24T07:38:22.838Z,94889.94
2023-02-24T07:43:26.783Z,94883.75
2023-02-24T07:48:29.950Z,94885.53
2023-02-24T07:53:32.316Z,94871.66
2023-02-24T07:58:35.768Z,94864.97
2023-02-24T08:03:41.417Z,94872.69
2023-02-24T08:08:57.999Z,94858.50
2023-02-24T08:14:02.645Z,94861.13
2023-02-24T08:19:05.192Z,94851.00
2023-02-24T08:24:07.496Z,94830.59
2023-02-24T08:29:10.731Z,94829.47
2023-02-24T08:34:16.135Z,94826.16
2023-02-24T08:39:19.215Z,94830.16
2023-02-24T08:44:24.475Z,94820.31
2023-02-24T08:49:28.227Z,94809.22
2023-02-24T08:54:32.030Z,94810.22
2023-02-24T08:59:49.599Z,94803.56
2023-02-24T09:04:53.096Z,94806.31
2023-02-24T09:09:56.431Z,94804.75
2023-02-24T09:15:01.167Z,94797.63
2023-02-24T09:20:21.766Z,94792.78
2023-02-24T09:25:25.891Z,94783.63
2023-02-24T09:30:37.905Z,94760.88
2023-02-24T09:35:42.771Z,94769.28
2023-02-24T09:40:49.801Z,94765.38
2023-02-24T09:45:53.553Z,94741.50
2023-02-24T09:51:05.122Z,94740.19
2023-02-24T09:56:08.019Z,94733.31
2023-02-24T10:01:22.108Z,94729.06
2023-02-24T10:06:24.885Z,94717.91
2023-02-24T10:11:33.823Z,94701.66
2023-02-24T10:16:42.500Z,94702.63
2023-02-24T10:22:00.500Z,94689.66
2023-02-24T10:27:08.999Z,94695.59
2023-02-24T10:32:16.995Z,94682.44
2023-02-24T10:37:28.200Z,94675.97
2023-02-24T10:42:31.970Z,94675.03
2023-02-24T10:47:34.453Z,94667.69
2023-02-24T10:53:10.912Z,94667.22
2023-02-24T10:58:16.238Z,94658.94
2023-02-24T11:03:35.869Z,94644.88
2023-02-24T11:08:54.248Z,94638.56
2023-02-24T11:14:22.868Z,94625.84
2023-02-24T11:19:25.181Z,94628.50
2023-02-24T11:24:27.927Z,94608.84
2023-02-24T11:29:31.046Z,94599.47
2023-02-24T11:34:33.368Z,94592.66
2023-02-24T11:39:35.918Z,94580.13
2023-02-24T11:44:38.217Z,94575.06
2023-02-24T11:49:42.386Z,94559.81
2023-02-24T11:54:45.201Z,94552.84
2023-02-24T11:59:47.658Z,94546.44
2023-02-24T12:04:50.938Z,94541.94
2023-02-24T12:09:56.326Z,94547.13
2023-02-24T12:15:01.279Z,94535.97
2023-02-24T12:20:06.179Z,94533.31
2023-02-24T12:25:08.693Z,94519.50
2023-02-24T12:30:22.860Z,94506.94
2023-02-24T12:35:25.795Z,94516.53
2023-02-24T12:40:29.775Z,94506.81
2023-02-24T12:45:32.176Z,94488.22
2023-02-24T12:50:34.578Z,94487.16
2023-02-24T12:55:37.209Z,94481.94
2023-02-24T13:00:39.577Z,94489.59
2023-02-24T13:05:42.751Z,94487.84
2023-02-24T13:10:45.645Z,94476.84
2023-02-24T13:15:48.772Z,94477.28
2023-02-24T13:20:51.527Z,94455.53
2023-02-24T13:25:54.653Z,94460.47
2023-02-24T13:30:57.880Z,94452.31
2023-02-24T13:36:01.068Z,94444.34
2023-02-24T13:41:03.409Z,94430.50
2023-02-24T13:46:05.788Z,94425.88
2023-02-24T13:51:08.451Z,94417.59
2023-02-24T13:56:10.836Z,94426.66
2023-02-24T14:01:14.004Z,94418.06
2023-02-24T14:06:16.419Z,94417.66
2023-02-24T14:11:21.804Z,94425.25
2023-02-24T14:16:25.019Z,94413.25
2023-02-24T14:21:27.968Z,94398.84
2023-02-24T14:26:30.308Z,94395.25
2023-02-24T14:31:33.720Z,94391.84
2023-02-24T14:36:35.992Z,94392.25
2023-02-24T14:41:39.023Z,94393.00
2023-02-24T14:46:41.428Z,94403.78
2023-02-24T14:51:44.565Z,94393.97
2023-02-24T14:56:47.742Z,94401.53
2023-02-24T15:01:50.184Z,94395.97
2023-02-24T15:06:53.019Z,94392.56
2023-02-24T15:11:56.687Z,94383.81
2023-02-24T15:17:00.314Z,94369.59
2023-02-24T15:22:03.389Z,94357.59
2023-02-24T15:27:05.759Z,94361.38
2023-02-24T15:32:08.166Z,94358.84
2023-02-24T15:37:10.683Z,94362.19
2023-02-24T15:42:13.139Z,94365.59
2023-02-24T15:47:16.234Z,94360.84
2023-02-24T15:52:18.620Z,94349.34
2023-02-24T15:57:21.942Z,94338.34
2023-02-24T16:02:24.681Z,94339.63
2023-02-24T16:07:27.496Z,94325.69
2023-02-24T16:12:31.824Z,94314.47
2023-02-24T16:17:34.274Z,94322.78
2023-02-24T16:22:37.723Z,94305.03
2023-02-24T16:27:40.198Z,94302.19
2023-02-24T16:32:42.692Z,94305.66
2023-02-24T16:37:45.946Z,94310.22
2023-02-24T16:42:48.234Z,94344.19
2023-02-24T16:47:51.451Z,94330.50
2023-02-24T16:52:54.576Z,94332.31
2023-02-24T16:57:57.186Z,94321.25
2023-02-24T17:02:59.948Z,94308.53
2023-02-24T17:08:03.227Z,94303.75
2023-02-24T17:13:05.653Z,94307.50
2023-02-24T17:18:08.093Z,94298.63
2023-02-24T17:23:11.260Z,94294.66
2023-02-24T17:28:13.939Z,94298.41
2023-02-24T17:33:16.360Z,94292.06
2023-02-24T17:38:19.485Z,94293.69
2023-02-24T17:43:23.033Z,94298.53
2023-02-24T17:48:25.842Z,94285.25
2023-02-24T17:53:31.076Z,94263.94
2023-02-24T17:58:33.477Z,94274.47
2023-02-24T18:03:35.934Z,94264.88
2023-02-24T18:08:39.167Z,94261.41
2023-02-24T18:13:41.559Z,94247.03
2023-02-24T18:18:44.785Z,94235.84
2023-02-24T18:23:49.574Z,94232.59
2023-02-24T18:28:53.879Z,94223.78
2023-02-24T18:34:06.304Z,94224.22
2023-02-24T18:39:10.109Z,94219.91
2023-02-24T18:44:12.523Z,94209.72
2023-02-24T18:49:15.237Z,94192.78
2023-02-24T18:54:19.558Z,94194.31
2023-02-24T18:59:21.961Z,94180.84
2023-02-24T19:04:25.056Z,94177.91
2023-02-24T19:09:28.219Z,94173.06
2023-02-24T19:14:31.675Z,94188.00
2023-02-24T19:19:34.125Z,94187.94
2023-02-24T19:24:36.776Z,94188.44
2023-02-24T19:29:39.576Z,94200.56
2023-02-24T19:34:42.923Z,94207.31
2023-02-24T19:39:46.161Z,94205.25
2023-02-24T19:44:48.690Z,94227.72
2023-02-24T19:49:51.400Z,94213.38
2023-02-24T19:54:54.524Z,94215.25
2023-02-24T19:59:57.738Z,94205.63
2023-02-24T20:05:00.173Z,94200.09
2023-02-24T20:10:02.586Z,94213.38
2023-02-24T20:15:07.158Z,94198.50
2023-02-24T20:20:09.625Z,94191.13
2023-02-24T20:25:12.684Z,94193.78
2023-02-24T20:30:15.980Z,94195.91
2023-02-24T20:35:21.034Z,94201.38
2023-02-24T20:40:32.798Z,94191.75
2023-02-24T20:45:35.428Z,94203.06
2023-02-24T20:50:37.888Z,94208.72
2023-02-24T20:55:40.987Z,94217.59
2023-02-24T21:00:43.263Z,94217.28
2023-02-24T21:05:45.952Z,94223.38
2023-02-24T21:10:49.118Z,94215.63
2023-02-24T21:15:52.689Z,94216.63
2023-02-24T21:20:55.208Z,94214.19
2023-02-24T21:25:57.544Z,94222.78
2023-02-24T21:31:00.824Z,94221.75
2023-02-24T21:36:05.806Z,94215.16
2023-02-24T21:41:08.199Z,94223.19
2023-02-24T21:46:11.256Z,94205.63
2023-02-24T21:51:13.648Z,94200.28
2023-02-24T21:56:17.235Z,94198.19
2023-02-24T22:01:19.798Z,94197.13
2023-02-24T22:06:24.006Z,94203.00
2023-02-24T22:11:26.619Z,94210.50
2023-02-24T22:16:41.113Z,94211.59
2023-02-24T22:21:44.051Z,94208.97
2023-02-24T22:26:46.540Z,94211.66
2023-02-24T22:31:49.952Z,94211.16
2023-02-24T22:36:53.561Z,94198.13
2023-02-24T22:41:55.948Z,94179.31
2023-02-24T22:46:58.380Z,94174.25
2023-02-24T22:52:00.701Z,94169.19
2023-02-24T22:57:03.842Z,94167.06
2023-02-24T23:02:07.779Z,94197.34
2023-02-24T23:07:10.231Z,94254.19
2023-02-24T23:12:15.282Z,94279.13
2023-02-24T23:17:17.620Z,94287.31
2023-02-24T23:22:20.784Z,94297.16
2023-02-24T23:27:23.418Z,94314.63
2023-02-24T23:32:28.070Z,94326.75
2023-02-24T23:37:30.792Z,94319.97
2023-02-24T23:42:33.873Z,94334.97
2023-02-24T23:47:36.656Z,94342.00
2023-02-24T23:52:39.089Z,94332.53
2023-02-24T23:57:41.469Z,94350.88
